createdAt,value
2023-01-30T00:00:23.780Z,1007.49
2023-01-30T00:01:23.758Z,1007.45
2023-01-30T00:02:23.836Z,1007.40
2023-01-30T00:03:23.779Z,1007.37
2023-01-30T00:04:23.718Z,1007.39
2023-01-30T00:05:23.840Z,1007.46
2023-01-30T00:06:23.705Z,1007.75
2023-01-30T00:07:23.707Z,1007.48
2023-01-30T00:08:23.691Z,1007.63
2023-01-30T00:09:23.672Z,1007.73
2023-01-30T00:10:25.971Z,1007.81
2023-01-30T00:11:23.703Z,1007.67
2023-01-30T00:12:23.658Z,1007.60
2023-01-30T00:13:23.629Z,1007.76
2023-01-30T00:14:23.625Z,1007.86
2023-01-30T00:15:23.618Z,1007.86
2023-01-30T00:16:23.613Z,1007.85
2023-01-30T00:17:23.618Z,1007.73
2023-01-30T00:18:23.581Z,1007.66
2023-01-30T00:19:23.583Z,1007.67
2023-01-30T00:20:23.575Z,1007.55
2023-01-30T00:21:23.561Z,1007.51
2023-01-30T00:22:23.535Z,1007.52
2023-01-30T00:23:23.532Z,1007.37
2023-01-30T00:24:23.579Z,1007.47
2023-01-30T00:25:23.680Z,1007.36
2023-01-30T00:26:23.574Z,1007.32
2023-01-30T00:27:23.496Z,1007.30
2023-01-30T00:28:23.500Z,1007.44
2023-01-30T00:29:23.462Z,1007.45
2023-01-30T00:30:23.472Z,1007.56
2023-01-30T00:31:23.466Z,1007.28
2023-01-30T00:32:23.423Z,1007.30
2023-01-30T00:33:23.428Z,1007.26
2023-01-30T00:34:24.093Z,1007.44
2023-01-30T00:35:23.398Z,1007.36
2023-01-30T00:36:23.379Z,1007.41
2023-01-30T00:37:23.384Z,1007.42
2023-01-30T00:38:23.362Z,1007.37
2023-01-30T00:39:23.365Z,1007.49
2023-01-30T00:40:23.330Z,1007.52
2023-01-30T00:41:23.338Z,1007.39
2023-01-30T00:42:23.399Z,1007.46
2023-01-30T00:43:23.319Z,1007.42
2023-01-30T00:44:23.292Z,1007.30
2023-01-30T00:45:23.301Z,1007.38
2023-01-30T00:46:23.297Z,1007.36
2023-01-30T00:47:23.282Z,1007.42
2023-01-30T00:48:23.260Z,1007.38
2023-01-30T00:49:23.259Z,1007.30
2023-01-30T00:50:23.245Z,1007.31
2023-01-30T00:51:23.242Z,1007.23
2023-01-30T00:52:23.206Z,1007.29
2023-01-30T00:53:23.205Z,1007.34
2023-01-30T00:56:43.044Z,1007.02
2023-01-30T00:57:42.998Z,1007.04
2023-01-30T00:58:42.972Z,1007.02
2023-01-30T00:59:42.990Z,1007.20
2023-01-30T01:00:42.960Z,1007.18
2023-01-30T01:01:42.977Z,1007.18
2023-01-30T01:02:42.956Z,1007.11
2023-01-30T01:03:42.972Z,1007.05
2023-01-30T01:04:42.986Z,1007.11
2023-01-30T01:05:42.912Z,1007.13
2023-01-30T01:06:42.896Z,1007.08
2023-01-30T01:07:42.905Z,1007.26
2023-01-30T01:08:55.281Z,1007.03
2023-01-30T01:09:48.653Z,1007.00
2023-01-30T01:10:53.784Z,1006.88
2023-01-30T01:11:48.271Z,1007.01
2023-01-30T01:19:38.427Z,1006.58
2023-01-30T01:20:37.576Z,1006.54
2023-01-30T01:21:37.583Z,1006.52
2023-01-30T01:22:37.602Z,1006.35
2023-01-30T01:23:37.560Z,1006.47
2023-01-30T01:24:37.541Z,1006.51
2023-01-30T01:25:37.530Z,1006.34
2023-01-30T01:26:37.533Z,1006.47
2023-01-30T01:27:37.515Z,1006.41
2023-01-30T01:28:37.501Z,1006.41
2023-01-30T01:29:37.494Z,1006.26
2023-01-30T01:30:37.485Z,1006.23
2023-01-30T01:31:37.558Z,1006.28
2023-01-30T01:32:37.454Z,1006.29
2023-01-30T01:33:37.460Z,1006.27
2023-01-30T01:34:37.420Z,1006.33
2023-01-30T01:35:37.610Z,1006.23
2023-01-30T01:36:54.169Z,1006.33
2023-01-30T01:37:38.481Z,1006.13
2023-01-30T01:38:37.390Z,1006.10
2023-01-30T01:39:37.392Z,1006.02
2023-01-30T01:40:37.361Z,1005.99
2023-01-30T01:41:37.381Z,1005.93
2023-01-30T01:42:37.341Z,1005.90
2023-01-30T01:43:37.344Z,1006.01
2023-01-30T01:44:37.333Z,1005.97
2023-01-30T01:45:37.342Z,1005.86
2023-01-30T01:46:37.305Z,1006.00
2023-01-30T01:47:37.304Z,1006.06
2023-01-30T01:48:37.272Z,1006.00
2023-01-30T01:49:37.274Z,1005.91
2023-01-30T01:50:37.264Z,1005.97
2023-01-30T01:51:37.247Z,1005.93
2023-01-30T01:52:37.239Z,1006.11
2023-01-30T01:53:37.299Z,1006.02
2023-01-30T01:54:37.211Z,1006.04
2023-01-30T01:55:37.200Z,1006.00
2023-01-30T01:56:37.209Z,1006.29
2023-01-30T01:57:37.200Z,1005.81
2023-01-30T01:58:37.169Z,1005.73
2023-01-30T01:59:37.167Z,1005.85
2023-01-30T02:00:37.145Z,1005.76
2023-01-30T02:01:37.132Z,1005.81
2023-01-30T02:02:37.162Z,1005.72
2023-01-30T02:03:37.169Z,1005.68
2023-01-30T02:04:37.098Z,1005.70
2023-01-30T02:05:37.114Z,1005.60
2023-01-30T02:06:37.145Z,1005.60
2023-01-30T02:07:37.087Z,1005.50
2023-01-30T02:08:37.073Z,1005.58
2023-01-30T02:09:37.059Z,1005.53
2023-01-30T02:10:37.061Z,1005.56
2023-01-30T02:11:37.060Z,1005.60
2023-01-30T02:12:37.029Z,1005.60
2023-01-30T02:13:37.027Z,1005.59
2023-01-30T02:14:36.995Z,1005.29
2023-01-30T02:15:37.000Z,1005.47
2023-01-30T02:16:36.973Z,1005.36
2023-01-30T02:17:37.033Z,1005.53
2023-01-30T02:18:36.980Z,1005.42
2023-01-30T02:19:36.954Z,1005.40
2023-01-30T02:20:36.928Z,1005.06
2023-01-30T02:21:36.929Z,1005.38
2023-01-30T02:22:36.952Z,1005.26
2023-01-30T02:23:36.914Z,1005.35
2023-01-30T02:24:36.888Z,1005.24
2023-01-30T02:25:36.896Z,1005.23
2023-01-30T02:26:36.941Z,1005.28
2023-01-30T02:27:36.869Z,1005.20
2023-01-30T02:28:36.841Z,1005.18
2023-01-30T02:29:36.840Z,1005.19
2023-01-30T02:30:36.945Z,1005.00
2023-01-30T02:31:37.004Z,1005.28
2023-01-30T02:32:36.825Z,1005.18
2023-01-30T02:33:36.804Z,1005.20
2023-01-30T02:34:36.833Z,1005.27
2023-01-30T02:35:36.795Z,1005.10
2023-01-30T02:36:36.762Z,1005.11
2023-01-30T02:37:36.986Z,1004.94
2023-01-30T02:38:36.755Z,1004.95
2023-01-30T02:39:36.741Z,1005.19
2023-01-30T02:40:36.746Z,1005.11
2023-01-30T02:41:36.707Z,1004.93
2023-01-30T02:42:36.712Z,1004.86
2023-01-30T02:43:36.704Z,1004.92
2023-01-30T02:44:36.716Z,1004.84
2023-01-30T02:45:36.661Z,1004.95
2023-01-30T02:46:36.659Z,1004.97
2023-01-30T02:47:36.660Z,1004.90
2023-01-30T02:48:36.638Z,1004.97
2023-01-30T02:49:36.632Z,1004.93
2023-01-30T02:50:36.686Z,1004.86
2023-01-30T02:51:36.598Z,1005.02
2023-01-30T02:52:36.611Z,1004.73
2023-01-30T02:53:36.576Z,1004.81
2023-01-30T02:54:36.612Z,1004.77
2023-01-30T02:55:36.568Z,1004.67
2023-01-30T02:56:36.540Z,1004.56
2023-01-30T02:57:36.545Z,1004.49
2023-01-30T02:58:36.531Z,1004.46
2023-01-30T02:59:36.512Z,1004.56
2023-01-30T03:00:36.515Z,1004.50
2023-01-30T03:01:36.589Z,1004.53
2023-01-30T03:02:36.522Z,1004.59
2023-01-30T03:03:36.477Z,1004.44
2023-01-30T03:04:36.486Z,1004.57
2023-01-30T03:05:36.446Z,1004.55
2023-01-30T03:06:36.445Z,1004.46
2023-01-30T03:07:36.466Z,1004.46
2023-01-30T03:08:36.490Z,1004.43
2023-01-30T03:09:36.410Z,1004.47
2023-01-30T03:10:36.409Z,1004.55
2023-01-30T03:11:36.393Z,1004.46
2023-01-30T03:12:36.390Z,1004.36
2023-01-30T03:13:36.376Z,1004.37
2023-01-30T03:14:36.386Z,1004.34
2023-01-30T03:15:36.348Z,1004.51
2023-01-30T03:16:36.344Z,1004.43
2023-01-30T03:17:36.317Z,1004.35
2023-01-30T03:18:36.329Z,1004.41
2023-01-30T03:19:36.299Z,1004.43
2023-01-30T03:20:36.340Z,1004.39
2023-01-30T03:21:36.274Z,1004.36
2023-01-30T03:22:36.345Z,1004.41
2023-01-30T03:23:36.264Z,1004.48
2023-01-30T03:24:36.299Z,1004.29
2023-01-30T03:25:36.256Z,1004.15
2023-01-30T03:26:36.331Z,1004.43
2023-01-30T03:27:36.214Z,1004.34
2023-01-30T03:28:36.215Z,1004.19
2023-01-30T03:29:36.224Z,1004.35
2023-01-30T03:30:36.240Z,1004.33
2023-01-30T03:31:36.268Z,1004.14
2023-01-30T03:32:36.195Z,1004.14
2023-01-30T03:33:36.159Z,1004.18
2023-01-30T03:34:36.145Z,1004.00
2023-01-30T03:35:36.126Z,1004.14
2023-01-30T03:36:36.124Z,1004.19
2023-01-30T03:37:36.134Z,1004.06
2023-01-30T03:38:36.119Z,1004.16
2023-01-30T03:39:36.193Z,1004.05
2023-01-30T03:40:36.334Z,1004.21
2023-01-30T03:41:36.053Z,1004.19
2023-01-30T03:42:36.076Z,1003.91
2023-01-30T03:43:36.037Z,1003.94
2023-01-30T03:44:36.050Z,1003.98
2023-01-30T03:45:36.033Z,1004.18
2023-01-30T03:46:36.025Z,1004.03
2023-01-30T03:47:35.998Z,1003.93
2023-01-30T03:48:36.016Z,1003.97
2023-01-30T03:49:35.993Z,1003.97
2023-01-30T03:50:35.987Z,1003.88
2023-01-30T03:51:35.977Z,1003.98
2023-01-30T03:52:35.967Z,1004.05
2023-01-30T03:53:35.987Z,1003.99
2023-01-30T03:54:35.932Z,1003.92
2023-01-30T03:55:35.946Z,1003.97
2023-01-30T03:56:35.917Z,1003.90
2023-01-30T03:57:35.885Z,1003.77
2023-01-30T03:58:35.899Z,1003.85
2023-01-30T03:59:35.882Z,1003.89
2023-01-30T04:00:35.873Z,1003.78
2023-01-30T04:01:36.690Z,1003.66
2023-01-30T04:02:35.906Z,1003.72
2023-01-30T04:03:35.830Z,1003.70
2023-01-30T04:04:35.839Z,1003.68
2023-01-30T04:05:35.827Z,1003.75
2023-01-30T04:06:36.719Z,1003.79
2023-01-30T04:07:35.781Z,1003.68
2023-01-30T04:08:35.775Z,1003.84
2023-01-30T04:09:35.769Z,1003.95
2023-01-30T04:10:35.802Z,1003.73
2023-01-30T04:11:35.766Z,1003.69
2023-01-30T04:12:35.757Z,1003.67
2023-01-30T04:13:35.742Z,1003.79
2023-01-30T04:14:35.751Z,1003.67
2023-01-30T04:15:35.720Z,1003.58
2023-01-30T04:16:35.725Z,1003.69
2023-01-30T04:17:35.674Z,1003.58
2023-01-30T04:18:35.684Z,1003.59
2023-01-30T04:19:35.653Z,1003.91
2023-01-30T04:20:35.661Z,1003.62
2023-01-30T04:21:35.637Z,1003.60
2023-01-30T04:22:35.636Z,1003.58
2023-01-30T04:23:35.634Z,1003.71
2023-01-30T04:24:35.637Z,1003.52
2023-01-30T04:25:35.591Z,1003.58
2023-01-30T04:26:35.822Z,1003.60
2023-01-30T04:27:35.588Z,1003.59
2023-01-30T04:28:35.602Z,1003.63
2023-01-30T04:29:35.588Z,1003.66
2023-01-30T04:30:35.619Z,1003.66
2023-01-30T04:31:35.594Z,1003.68
2023-01-30T04:32:35.535Z,1003.58
2023-01-30T04:33:35.577Z,1003.62
2023-01-30T04:34:35.509Z,1003.54
2023-01-30T04:35:35.698Z,1003.57
2023-01-30T04:36:35.684Z,1003.62
2023-01-30T04:37:35.469Z,1003.68
2023-01-30T04:38:35.475Z,1003.65
2023-01-30T04:39:35.444Z,1003.61
2023-01-30T04:40:35.452Z,1003.52
2023-01-30T04:41:36.233Z,1003.56
2023-01-30T04:42:35.440Z,1003.52
2023-01-30T04:43:35.398Z,1003.52
2023-01-30T04:44:35.402Z,1003.52
2023-01-30T04:45:35.385Z,1003.55
2023-01-30T04:46:35.382Z,1003.51
2023-01-30T04:47:35.459Z,1003.59
2023-01-30T04:48:35.372Z,1003.46
2023-01-30T04:49:35.335Z,1003.45
2023-01-30T04:50:35.328Z,1003.39
2023-01-30T04:51:35.318Z,1003.49
2023-01-30T04:52:35.334Z,1003.37
2023-01-30T04:53:35.841Z,1003.35
2023-01-30T04:54:35.327Z,1003.40
2023-01-30T04:55:35.280Z,1003.32
2023-01-30T04:56:35.272Z,1003.20
2023-01-30T04:57:35.260Z,1003.32
2023-01-30T04:58:35.259Z,1003.29
2023-01-30T04:59:35.230Z,1003.26
2023-01-30T05:00:35.268Z,1003.37
2023-01-30T05:01:35.278Z,1003.38
2023-01-30T05:02:35.228Z,1003.40
2023-01-30T05:03:35.180Z,1003.24
2023-01-30T05:04:35.192Z,1003.23
2023-01-30T05:05:35.170Z,1003.19
2023-01-30T05:06:35.143Z,1003.16
2023-01-30T05:07:35.142Z,1003.56
2023-01-30T05:08:35.142Z,1003.05
2023-01-30T05:09:35.183Z,1003.20
2023-01-30T05:10:35.141Z,1003.09
2023-01-30T05:11:35.105Z,1003.03
2023-01-30T05:12:35.143Z,1003.03
2023-01-30T05:13:35.092Z,1002.99
2023-01-30T05:14:35.104Z,1003.02
2023-01-30T05:15:35.070Z,1003.03
2023-01-30T05:16:35.048Z,1003.10
2023-01-30T05:17:35.132Z,1003.00
2023-01-30T05:18:35.016Z,1003.07
2023-01-30T05:19:35.037Z,1003.00
2023-01-30T05:20:35.006Z,1003.19
2023-01-30T05:21:34.991Z,1003.03
2023-01-30T05:22:34.989Z,1003.17
2023-01-30T05:23:34.963Z,1002.97
2023-01-30T05:24:34.991Z,1003.20
2023-01-30T05:25:34.948Z,1003.20
2023-01-30T05:26:34.989Z,1003.05
2023-01-30T05:27:34.932Z,1002.99
2023-01-30T05:28:34.928Z,1003.18
2023-01-30T05:29:34.896Z,1003.10
2023-01-30T05:30:34.974Z,1003.10
2023-01-30T05:31:34.945Z,1003.22
2023-01-30T05:32:34.873Z,1003.22
2023-01-30T05:33:34.875Z,1003.20
2023-01-30T05:34:34.862Z,1003.12
2023-01-30T05:35:34.833Z,1003.14
2023-01-30T05:36:34.857Z,1003.22
2023-01-30T05:37:35.700Z,1003.22
2023-01-30T05:38:34.823Z,1003.23
2023-01-30T05:39:34.798Z,1003.16
2023-01-30T05:40:34.807Z,1003.13
2023-01-30T05:41:34.764Z,1003.20
2023-01-30T05:42:34.816Z,1003.19
2023-01-30T05:43:34.930Z,1003.23
2023-01-30T05:44:34.757Z,1003.19
2023-01-30T05:45:34.730Z,1003.38
2023-01-30T05:46:34.792Z,1003.52
2023-01-30T05:47:34.698Z,1003.38
2023-01-30T05:48:34.720Z,1003.41
2023-01-30T05:49:34.689Z,1003.53
2023-01-30T05:50:34.694Z,1003.45
2023-01-30T05:51:34.658Z,1003.39
2023-01-30T05:52:34.684Z,1003.68
2023-01-30T05:53:34.650Z,1003.94
2023-01-30T05:54:34.633Z,1003.35
2023-01-30T05:55:34.608Z,1003.46
2023-01-30T05:56:34.616Z,1003.47
2023-01-30T05:57:34.594Z,1003.33
2023-01-30T05:58:34.606Z,1004.00
2023-01-30T05:59:34.581Z,1003.40
2023-01-30T06:00:34.621Z,1003.33
2023-01-30T06:01:34.566Z,1003.26
2023-01-30T06:02:34.595Z,1003.40
2023-01-30T06:03:34.616Z,1003.66
2023-01-30T06:04:34.574Z,1003.16
2023-01-30T06:05:34.542Z,1003.28
2023-01-30T06:06:34.549Z,1003.28
2023-01-30T06:07:34.487Z,1003.44
2023-01-30T06:08:34.567Z,1003.27
2023-01-30T06:09:34.516Z,1003.21
2023-01-30T06:10:34.481Z,1003.29
2023-01-30T06:11:34.467Z,1003.26
2023-01-30T06:12:34.475Z,1003.20
2023-01-30T06:13:34.479Z,1003.23
2023-01-30T06:14:34.540Z,1003.24
2023-01-30T06:15:34.420Z,1003.53
2023-01-30T06:16:34.470Z,1003.25
2023-01-30T06:17:34.447Z,1003.17
2023-01-30T06:18:34.434Z,1003.18
2023-01-30T06:19:34.360Z,1003.18
2023-01-30T06:20:34.365Z,1003.30
2023-01-30T06:21:34.353Z,1003.30
2023-01-30T06:22:34.338Z,1003.38
2023-01-30T06:23:34.668Z,1003.47
2023-01-30T06:24:34.323Z,1003.44
2023-01-30T06:25:34.307Z,1003.40
2023-01-30T06:26:34.334Z,1003.54
2023-01-30T06:27:34.410Z,1003.44
2023-01-30T06:28:34.287Z,1003.63
2023-01-30T06:29:34.267Z,1003.61
2023-01-30T06:30:34.344Z,1003.65
2023-01-30T06:31:34.365Z,1003.59
2023-01-30T06:32:34.243Z,1003.67
2023-01-30T06:33:34.197Z,1003.55
2023-01-30T06:34:34.221Z,1003.45
2023-01-30T06:35:34.212Z,1003.46
2023-01-30T06:36:34.215Z,1003.58
2023-01-30T06:37:34.183Z,1003.48
2023-01-30T06:38:34.170Z,1003.53
2023-01-30T06:39:34.145Z,1003.50
2023-01-30T06:40:34.149Z,1003.45
2023-01-30T06:41:34.122Z,1003.66
2023-01-30T06:42:34.131Z,1003.64
2023-01-30T06:43:34.096Z,1003.56
2023-01-30T06:44:34.101Z,1003.51
2023-01-30T06:45:34.287Z,1003.57
2023-01-30T06:46:34.105Z,1003.54
2023-01-30T06:47:34.066Z,1003.59
2023-01-30T06:48:34.066Z,1003.65
2023-01-30T06:49:34.030Z,1003.77
2023-01-30T06:50:34.151Z,1003.74
2023-01-30T06:51:34.021Z,1003.61
2023-01-30T06:52:34.012Z,1003.60
2023-01-30T06:53:34.152Z,1003.63
2023-01-30T06:54:34.035Z,1003.74
2023-01-30T06:55:34.003Z,1003.68
2023-01-30T06:56:34.926Z,1003.56
2023-01-30T06:57:33.962Z,1003.74
2023-01-30T06:58:33.977Z,1003.69
2023-01-30T06:59:33.953Z,1003.68
2023-01-30T07:00:33.925Z,1003.79
2023-01-30T07:01:33.970Z,1003.96
2023-01-30T07:02:33.897Z,1003.79
2023-01-30T07:03:33.908Z,1003.80
2023-01-30T07:04:33.896Z,1003.71
2023-01-30T07:05:33.872Z,1003.79
2023-01-30T07:06:33.875Z,1003.91
2023-01-30T07:07:33.862Z,1003.75
2023-01-30T07:08:33.844Z,1003.73
2023-01-30T07:09:33.897Z,1003.71
2023-01-30T07:10:34.160Z,1003.74
2023-01-30T07:11:34.161Z,1003.72
2023-01-30T07:12:40.833Z,1003.69
2023-01-30T07:13:33.785Z,1003.70
2023-01-30T07:14:33.769Z,1003.65
2023-01-30T07:15:33.774Z,1003.72
2023-01-30T07:16:33.807Z,1003.67
2023-01-30T07:17:33.754Z,1003.69
2023-01-30T07:18:33.781Z,1003.46
2023-01-30T07:19:33.715Z,1003.58
2023-01-30T07:20:33.721Z,1003.57
2023-01-30T07:21:33.711Z,1003.52
2023-01-30T07:22:33.677Z,1003.37
2023-01-30T07:23:33.668Z,1003.34
2023-01-30T07:24:33.676Z,1003.78
2023-01-30T07:25:33.664Z,1003.55
2023-01-30T07:26:33.701Z,1003.51
2023-01-30T07:27:33.647Z,1003.57
2023-01-30T07:28:33.624Z,1003.63
2023-01-30T07:29:33.616Z,1003.54
2023-01-30T07:30:33.654Z,1003.59
2023-01-30T07:31:33.637Z,1003.73
2023-01-30T07:32:33.565Z,1003.50
2023-01-30T07:33:33.573Z,1003.67
2023-01-30T07:34:33.569Z,1003.72
2023-01-30T07:35:33.557Z,1003.67
2023-01-30T07:36:33.569Z,1003.57
2023-01-30T07:37:33.531Z,1003.59
2023-01-30T07:38:33.521Z,1003.68
2023-01-30T07:39:33.502Z,1003.73
2023-01-30T07:40:33.528Z,1003.85
2023-01-30T07:41:33.493Z,1003.83
2023-01-30T07:42:33.472Z,1003.74
2023-01-30T07:43:33.462Z,1003.70
2023-01-30T07:44:33.431Z,1003.72
2023-01-30T07:45:33.444Z,1003.75
2023-01-30T07:46:33.473Z,1003.78
2023-01-30T07:47:33.641Z,1003.68
2023-01-30T07:48:33.420Z,1003.84
2023-01-30T07:49:33.387Z,1003.60
2023-01-30T07:50:33.384Z,1003.69
2023-01-30T07:51:33.378Z,1003.84
2023-01-30T07:52:33.347Z,1003.75
2023-01-30T07:53:33.357Z,1003.75
2023-01-30T07:54:33.332Z,1003.69
2023-01-30T07:55:33.346Z,1003.80
2023-01-30T07:56:33.351Z,1003.71
2023-01-30T07:57:33.322Z,1003.90
2023-01-30T07:58:33.298Z,1003.92
2023-01-30T07:59:33.311Z,1003.98
2023-01-30T08:00:33.268Z,1004.05
2023-01-30T08:01:33.264Z,1003.75
2023-01-30T08:02:33.250Z,1003.86
2023-01-30T08:03:33.273Z,1003.86
2023-01-30T08:04:33.242Z,1003.87
2023-01-30T08:05:33.243Z,1003.97
2023-01-30T08:06:33.217Z,1004.19
2023-01-30T08:07:33.199Z,1004.07
2023-01-30T08:08:33.180Z,1003.89
2023-01-30T08:09:33.186Z,1004.00
2023-01-30T08:10:33.176Z,1003.94
2023-01-30T08:11:33.163Z,1003.94
2023-01-30T08:12:33.153Z,1003.85
2023-01-30T08:13:33.132Z,1004.02
2023-01-30T08:14:33.114Z,1003.96
2023-01-30T08:15:33.132Z,1003.89
2023-01-30T08:16:33.152Z,1003.95
2023-01-30T08:17:33.103Z,1003.90
2023-01-30T08:18:33.109Z,1003.85
2023-01-30T08:19:33.077Z,1003.90
2023-01-30T08:20:33.058Z,1003.88
2023-01-30T08:21:33.058Z,1003.84
2023-01-30T08:22:33.025Z,1003.69
2023-01-30T08:23:33.057Z,1004.25
2023-01-30T08:24:33.954Z,1004.02
2023-01-30T08:25:33.019Z,1003.63
2023-01-30T08:26:33.042Z,1004.00
2023-01-30T08:27:33.000Z,1003.89
2023-01-30T08:28:32.962Z,1003.79
2023-01-30T08:29:32.954Z,1003.83
2023-01-30T08:30:33.003Z,1003.94
2023-01-30T08:31:32.967Z,1003.95
2023-01-30T08:32:32.930Z,1003.98
2023-01-30T08:33:32.926Z,1004.21
2023-01-30T08:34:32.891Z,1003.90
2023-01-30T08:35:32.896Z,1004.03
2023-01-30T08:36:32.892Z,1003.83
2023-01-30T08:37:32.882Z,1004.01
2023-01-30T08:38:32.855Z,1003.88
2023-01-30T08:39:32.864Z,1004.08
2023-01-30T08:40:32.845Z,1003.91
2023-01-30T08:41:32.844Z,1004.04
2023-01-30T08:42:32.790Z,1003.88
2023-01-30T08:43:32.815Z,1004.08
2023-01-30T08:44:32.890Z,1003.88
2023-01-30T08:45:32.790Z,1003.75
2023-01-30T08:46:32.784Z,1004.03
2023-01-30T08:47:32.778Z,1003.93
2023-01-30T08:48:47.506Z,1004.03
2023-01-30T08:49:34.003Z,1004.00
2023-01-30T08:50:32.723Z,1004.02
2023-01-30T08:51:32.759Z,1004.20
2023-01-30T08:52:32.698Z,1003.76
2023-01-30T08:53:32.690Z,1004.53
2023-01-30T08:54:33.402Z,1004.20
2023-01-30T08:55:32.681Z,1004.15
2023-01-30T08:56:32.658Z,1004.33
2023-01-30T08:57:32.669Z,1004.15
2023-01-30T08:58:32.648Z,1004.19
2023-01-30T08:59:32.657Z,1004.13
2023-01-30T09:00:32.585Z,1004.14
2023-01-30T09:01:32.648Z,1004.17
2023-01-30T09:02:32.630Z,1004.04
2023-01-30T09:03:32.592Z,1003.96
2023-01-30T09:04:32.566Z,1004.06
2023-01-30T09:05:32.572Z,1004.22
2023-01-30T09:06:32.545Z,1004.08
2023-01-30T09:07:32.545Z,1004.07
2023-01-30T09:08:32.561Z,1004.09
2023-01-30T09:09:32.531Z,1004.03
2023-01-30T09:10:32.498Z,1004.39
2023-01-30T09:11:32.506Z,1004.19
2023-01-30T09:12:32.490Z,1004.03
2023-01-30T09:13:32.482Z,1004.07
2023-01-30T09:14:32.467Z,1004.08
2023-01-30T09:15:32.492Z,1004.03
2023-01-30T09:16:32.485Z,1004.19
2023-01-30T09:17:32.454Z,1004.27
2023-01-30T09:18:32.409Z,1004.49
2023-01-30T09:19:32.415Z,1004.26
2023-01-30T09:20:32.468Z,1004.12
2023-01-30T09:21:32.406Z,1004.19
2023-01-30T09:22:32.441Z,1004.24
2023-01-30T09:23:32.378Z,1004.09
2023-01-30T09:24:32.365Z,1004.18
2023-01-30T09:25:32.385Z,1004.36
2023-01-30T09:26:32.414Z,1004.21
2023-01-30T09:27:32.333Z,1004.30
2023-01-30T09:28:32.329Z,1004.17
2023-01-30T09:29:32.334Z,1004.19
2023-01-30T09:30:32.323Z,1004.29
2023-01-30T09:31:32.345Z,1004.18
2023-01-30T09:32:32.286Z,1004.07
2023-01-30T09:33:32.295Z,1004.45
2023-01-30T09:34:32.262Z,1004.15
2023-01-30T09:35:32.262Z,1004.08
2023-01-30T09:36:32.232Z,1004.13
2023-01-30T09:37:32.235Z,1004.31
2023-01-30T09:38:32.214Z,1004.56
2023-01-30T09:39:32.297Z,1004.10
2023-01-30T09:40:32.180Z,1004.17
2023-01-30T09:41:32.177Z,1004.13
2023-01-30T09:42:32.161Z,1004.12
2023-01-30T09:43:32.159Z,1004.02
2023-01-30T09:44:32.159Z,1004.02
2023-01-30T09:45:32.163Z,1004.10
2023-01-30T09:46:32.185Z,1004.16
2023-01-30T09:47:32.123Z,1003.99
2023-01-30T09:48:32.133Z,1004.04
2023-01-30T09:49:32.101Z,1004.14
2023-01-30T09:50:32.064Z,1004.24
2023-01-30T09:51:32.488Z,1004.30
2023-01-30T09:52:32.063Z,1004.36
2023-01-30T09:53:32.044Z,1004.25
2023-01-30T09:54:32.050Z,1004.22
2023-01-30T09:55:32.056Z,1004.12
2023-01-30T09:56:32.015Z,1004.34
2023-01-30T09:57:32.031Z,1004.26
2023-01-30T09:58:31.996Z,1004.36
2023-01-30T09:59:32.010Z,1004.31
2023-01-30T10:00:31.962Z,1004.38
2023-01-30T10:01:31.975Z,1004.29
2023-01-30T10:02:31.955Z,1004.28
2023-01-30T10:03:32.012Z,1004.30
2023-01-30T10:04:31.984Z,1004.31
2023-01-30T10:05:31.939Z,1004.53
2023-01-30T10:06:31.915Z,1004.32
2023-01-30T10:07:31.918Z,1004.26
2023-01-30T10:08:31.871Z,1004.11
2023-01-30T10:09:31.887Z,1004.15
2023-01-30T10:10:31.876Z,1004.20
2023-01-30T10:11:31.885Z,1004.56
2023-01-30T10:12:31.845Z,1004.12
2023-01-30T10:13:31.829Z,1004.14
2023-01-30T10:14:31.814Z,1004.42
2023-01-30T10:15:31.810Z,1004.14
2023-01-30T10:16:31.790Z,1004.11
2023-01-30T10:17:32.816Z,1004.13
2023-01-30T10:18:31.788Z,1004.08
2023-01-30T10:19:36.070Z,1004.21
2023-01-30T10:20:31.782Z,1004.16
2023-01-30T10:21:31.815Z,1003.96
2023-01-30T10:22:32.154Z,1004.06
2023-01-30T10:23:31.728Z,1004.03
2023-01-30T10:24:31.720Z,1004.21
2023-01-30T10:25:31.725Z,1004.55
2023-01-30T10:26:31.758Z,1004.04
2023-01-30T10:27:31.692Z,1004.21
2023-01-30T10:28:31.678Z,1004.50
2023-01-30T10:29:31.656Z,1004.22
2023-01-30T10:30:31.666Z,1003.63
2023-01-30T10:31:31.687Z,1003.86
2023-01-30T10:32:31.677Z,1004.11
2023-01-30T10:33:31.626Z,1004.12
2023-01-30T10:34:31.604Z,1004.09
2023-01-30T10:35:31.590Z,1004.21
2023-01-30T10:36:31.576Z,1004.20
2023-01-30T10:37:31.582Z,1004.12
2023-01-30T10:38:31.565Z,1004.08
2023-01-30T10:39:31.572Z,1003.97
2023-01-30T10:40:31.544Z,1004.00
2023-01-30T10:41:31.534Z,1004.10
2023-01-30T10:42:31.503Z,1004.11
2023-01-30T10:43:31.512Z,1004.05
2023-01-30T10:44:31.475Z,1003.97
2023-01-30T10:45:31.493Z,1004.08
2023-01-30T10:46:31.495Z,1003.96
2023-01-30T10:47:41.712Z,1004.13
2023-01-30T10:48:43.022Z,1004.19
2023-01-30T10:49:32.463Z,1004.33
2023-01-30T10:50:31.438Z,1004.35
2023-01-30T10:51:31.894Z,1004.32
2023-01-30T10:52:31.405Z,1004.39
2023-01-30T10:53:31.732Z,1004.27
2023-01-30T10:54:31.396Z,1004.08
2023-01-30T10:55:38.144Z,1004.10
2023-01-30T10:56:32.703Z,1003.81
2023-01-30T10:57:31.591Z,1004.24
2023-01-30T10:58:31.940Z,1004.10
2023-01-30T10:59:31.332Z,1004.43
2023-01-30T11:00:31.382Z,1004.09
2023-01-30T11:01:31.354Z,1004.09
2023-01-30T11:02:31.412Z,1004.12
2023-01-30T11:03:31.351Z,1004.06
2023-01-30T11:04:31.285Z,1004.22
2023-01-30T11:05:31.343Z,1004.23
2023-01-30T11:06:31.875Z,1004.18
2023-01-30T11:07:31.258Z,1003.85
2023-01-30T11:08:31.263Z,1004.20
2023-01-30T11:09:32.128Z,1003.80
2023-01-30T11:10:31.233Z,1003.91
2023-01-30T11:11:31.209Z,1003.90
2023-01-30T11:12:31.375Z,1004.09
2023-01-30T11:13:31.454Z,1003.66
2023-01-30T11:14:31.174Z,1003.85
2023-01-30T11:15:31.159Z,1003.46
2023-01-30T11:16:31.179Z,1003.66
2023-01-30T11:17:31.135Z,1003.68
2023-01-30T11:19:17.762Z,1003.74
2023-01-30T11:19:32.120Z,1004.02
2023-01-30T11:20:31.131Z,1003.66
2023-01-30T11:21:43.072Z,1004.19
2023-01-30T11:22:32.092Z,1003.91
2023-01-30T11:23:31.075Z,1003.65
2023-01-30T11:24:31.113Z,1003.64
2023-01-30T11:25:31.050Z,1003.76
2023-01-30T11:26:41.475Z,1003.79
2023-01-30T11:27:32.017Z,1003.88
2023-01-30T11:28:31.023Z,1003.82
2023-01-30T11:29:31.017Z,1003.72
2023-01-30T11:30:30.999Z,1003.90
2023-01-30T11:31:40.768Z,1003.94
2023-01-30T11:32:32.081Z,1003.68
2023-01-30T11:33:30.960Z,1003.62
2023-01-30T11:34:30.967Z,1004.08
2023-01-30T11:35:30.932Z,1003.74
2023-01-30T11:36:30.940Z,1003.62
2023-01-30T11:37:30.907Z,1003.73
2023-01-30T11:38:30.910Z,1003.65
2023-01-30T11:39:30.895Z,1003.80
2023-01-30T11:40:30.917Z,1003.36
2023-01-30T11:41:30.870Z,1003.55
2023-01-30T11:42:30.882Z,1003.72
2023-01-30T11:43:30.845Z,1003.64
2023-01-30T11:44:30.837Z,1003.56
2023-01-30T11:45:30.883Z,1003.68
2023-01-30T11:46:30.834Z,1003.44
2023-01-30T11:47:30.809Z,1003.63
2023-01-30T11:48:33.071Z,1003.57
2023-01-30T11:49:49.441Z,1003.71
2023-01-30T11:50:35.352Z,1003.97
2023-01-30T11:51:32.003Z,1003.83
2023-01-30T11:52:30.795Z,1003.65
2023-01-30T11:53:30.731Z,1003.56
2023-01-30T11:54:30.752Z,1003.71
2023-01-30T11:55:30.933Z,1003.51
2023-01-30T11:56:30.712Z,1003.78
2023-01-30T11:57:30.719Z,1003.67
2023-01-30T11:58:30.740Z,1003.76
2023-01-30T11:59:30.669Z,1003.82
2023-01-30T12:00:30.674Z,1003.86
2023-01-30T12:01:30.656Z,1004.03
2023-01-30T12:02:30.657Z,1003.93
2023-01-30T12:03:30.777Z,1004.06
2023-01-30T12:04:31.582Z,1004.02
2023-01-30T12:05:30.609Z,1003.99
2023-01-30T12:06:30.649Z,1003.88
2023-01-30T12:07:30.580Z,1003.71
2023-01-30T12:08:40.962Z,1004.12
2023-01-30T12:09:31.600Z,1003.69
2023-01-30T12:10:30.582Z,1003.79
2023-01-30T12:11:30.604Z,1004.64
2023-01-30T12:12:30.549Z,1003.93
2023-01-30T12:13:30.564Z,1003.71
2023-01-30T12:14:30.532Z,1003.84